首页
METAR-TAF:

METAR-TAF

机场 :

埃德蒙顿国际机场

埃德蒙顿, 艾伯塔, 加拿大

纬度: 53-18N, 经度: 113-35W, 海拔: 715米

当前天气观测

该预报发布于57分钟前的21:00 UTC
风速3节,风向东转东北,在北转东北东南之间变化
温度 21°C
湿度 25%
气压 1019 hPa
能見度: 32.2公里
散云层高于8000英尺

METAR: CYEG 262100Z 06003KT 030V140 20SM SCT080 21/M00 A3009 RMK AC3 SLP204 DENSITY ALT 3500FT

时间: 15:57 (21:57 UTC)

预报

该预报发布于1小时和19分钟前的20:38 UTC
预报有效从26日的 21点(UTC)到 27日的 18点(UTC)
风速3节,风向多变
能見度: 10公里
少量云层高于7000英尺
成为
从 26日的 21点(UTC)到 26日的 23点(UTC)
风速8节,风向东南
从 27日的 0600点(UTC)
风速6节,风向
能見度: 10公里
天空无云
从 27日的 1700点(UTC)
风速8节,风向西南
能見度: 10公里
天空无云

TAF: CYEG 262038Z 2621/2718 VRB03KT P6SM FEW070 BECMG 2621/2623 13008KT FM270600 18006KT P6SM SKC FM271700 23008KT P6SM SKC RMK NXT FCST BY 270000Z

超过4000个机场的气象观测和天气预报(METAR&TAF报告)。

可查询的气象台以黄色和红色小点在地图上表示。

将鼠标移到小点上方,可查看气象台名称。

然后点击查看天气观测和预报。

如需切换地图:点击带黑十字的绿色按钮放大地图;点击带横线的绿色按钮缩小地图;或者点击绿色箭头查看邻近地区的地图。


METAR-TAF: